Time;durP1;ratioP1;P1;durP2;ratioP2;P2;SDS_P1;SDS_P2;PMS_P1;PMS_P2;Temp;Humidity;BMP_temperature;BMP_pressure;BME280_temperature;BME280_humidity;BME280_pressure;Samples;Min_cycle;Max_cycle;Signal;HPM_P1;HPM_P2
2023/05/28 00:02:10;;;;;;;;;;;;;;;26.71;23.00;98681.25;5072033;28;19924;-83
2023/05/28 00:04:37;;;;;;;;;;;;;;;26.82;22.71;98680.22;5075203;28;19920;-83
2023/05/28 00:07:03;;;;;;;;;;;;;;;26.64;23.02;98678.59;5065468;28;19924;-83
2023/05/28 00:09:29;;;;;;;;;;;;;;;26.70;22.98;98685.28;5076586;28;19916;-83
2023/05/28 00:11:56;;;;;;;;;;;;;;;26.78;22.66;98680.31;5076795;28;19917;-83
2023/05/28 00:14:22;;;;;;;;;;;;;;;26.83;23.05;98682.59;5076017;28;19966;-83
2023/05/28 00:16:50;;;;;;;;;;;;;;;26.59;23.04;98684.72;5069388;28;19932;-83
2023/05/28 00:19:17;;;;;;;;;;;;;;;26.33;23.42;98676.47;5066876;28;19920;-82
2023/05/28 00:21:43;;;;;;;;;;;;;;;26.29;23.57;98676.56;5062642;28;19924;-83
2023/05/28 00:24:09;;;;;;;;;;;;;;;26.32;23.73;98678.50;5074449;28;19921;-83
2023/05/28 00:26:36;;;;;;;;;;;;;;;26.39;23.26;98672.72;5065388;28;19917;-83
2023/05/28 00:29:03;;;;;;;;;;;;;;;26.34;23.17;98673.22;5076515;28;19924;-83
2023/05/28 00:31:29;;;;;;;;;;;;;;;26.43;23.23;98664.19;5075902;28;20417;-83
2023/05/28 00:33:56;;;;;;;;;;;;;;;26.48;23.27;98664.47;5070415;28;19924;-83
2023/05/28 00:36:22;;;;;;;;;;;;;;;26.37;23.35;98655.44;5076410;28;19923;-83
2023/05/28 00:38:48;;;;;;;;;;;;;;;26.28;23.11;98662.91;5067770;28;19928;-83
2023/05/28 00:41:22;;;;;;;;;;;;;;;26.14;23.26;98655.56;5075343;28;20311;-83
2023/05/28 00:43:48;;;;;;;;;;;;;;;26.13;23.41;98647.56;5076092;28;20351;-83
2023/05/28 00:46:17;;;;;;;;;;;;;;;26.06;23.81;98646.44;5091434;28;20379;-83
2023/05/28 00:48:44;;;;;;;;;;;;;;;26.04;23.75;98645.31;5082569;28;20272;-83
2023/05/28 00:51:11;;;;;;;;;;;;;;;26.06;23.53;98640.03;5070626;28;19916;-83
2023/05/28 00:53:38;;;;;;;;;;;;;;;25.96;24.01;98638.22;5070911;28;19924;-83
2023/05/28 00:56:04;;;;;;;;;;;;;;;26.03;23.74;98636.06;5073620;28;19929;-82
2023/05/28 00:58:31;;;;;;;;;;;;;;;26.02;23.55;98636.50;5064821;28;20015;-83
2023/05/28 01:00:57;;;;;;;;;;;;;;;25.96;23.80;98641.84;5073051;28;19917;-83
2023/05/28 01:03:23;;;;;;;;;;;;;;;26.01;23.45;98634.91;5075005;28;20464;-83
2023/05/28 01:05:50;;;;;;;;;;;;;;;26.08;23.71;98643.19;5066081;28;20015;-83
2023/05/28 01:08:16;;;;;;;;;;;;;;;26.05;23.45;98630.78;5067697;28;19920;-83
2023/05/28 01:10:43;;;;;;;;;;;;;;;26.14;23.15;98627.41;5061995;28;19928;-83
2023/05/28 01:13:09;;;;;;;;;;;;;;;26.20;22.96;98633.31;5055574;28;19921;-82
2023/05/28 01:15:37;;;;;;;;;;;;;;;26.25;23.29;98630.00;5067318;28;20346;-82
2023/05/28 01:18:04;;;;;;;;;;;;;;;26.25;23.25;98630.00;5075276;28;20440;-83
2023/05/28 01:20:30;;;;;;;;;;;;;;;26.14;23.35;98633.03;5064551;28;20292;-83
2023/05/28 01:23:03;;;;;;;;;;;;;;;26.19;23.28;98635.34;5063016;28;20015;-83
2023/05/28 01:25:30;;;;;;;;;;;;;;;26.24;22.62;98623.56;5072816;28;19921;-83
2023/05/28 01:27:56;;;;;;;;;;;;;;;25.80;23.69;98630.50;5060821;28;20291;-83
2023/05/28 01:30:22;;;;;;;;;;;;;;;25.35;24.51;98632.94;5067681;28;19921;-82
2023/05/28 01:32:48;;;;;;;;;;;;;;;25.17;24.87;98623.25;5064225;28;19924;-83
2023/05/28 01:35:14;;;;;;;;;;;;;;;25.35;24.54;98632.16;5075334;28;19931;-83
2023/05/28 01:37:43;;;;;;;;;;;;;;;25.49;24.37;98628.31;5070016;28;19975;-83
2023/05/28 01:40:10;;;;;;;;;;;;;;;25.53;24.32;98618.59;5072441;28;19927;-83
2023/05/28 01:42:37;;;;;;;;;;;;;;;25.61;24.38;98622.06;5067806;28;19921;-83
2023/05/28 01:45:04;;;;;;;;;;;;;;;25.77;24.27;98614.50;5073907;28;19967;-83
2023/05/28 01:47:31;;;;;;;;;;;;;;;25.62;24.63;98616.00;5065115;28;19967;-83
2023/05/28 01:49:57;;;;;;;;;;;;;;;25.59;24.36;98605.63;5072017;28;20003;-83
2023/05/28 01:52:23;;;;;;;;;;;;;;;25.70;24.50;98614.63;5069101;28;19964;-82
2023/05/28 01:54:49;;;;;;;;;;;;;;;25.81;24.03;98612.38;5071942;28;19924;-83
2023/05/28 01:57:15;;;;;;;;;;;;;;;25.89;23.89;98613.84;5072574;28;19966;-83
2023/05/28 01:59:41;;;;;;;;;;;;;;;25.96;23.59;98607.28;5067573;28;20003;-82
2023/05/28 02:02:07;;;;;;;;;;;;;;;25.96;23.79;98607.28;5061734;28;19971;-83
2023/05/28 02:04:33;;;;;;;;;;;;;;;25.91;23.38;98605.75;5072994;28;19932;-83
2023/05/28 02:06:59;;;;;;;;;;;;;;;25.93;23.27;98608.13;5063972;28;20295;-83
2023/05/28 02:09:25;;;;;;;;;;;;;;;25.78;23.60;98607.66;5068893;28;19927;-82
2023/05/28 02:11:52;;;;;;;;;;;;;;;25.64;23.72;98605.13;5070870;28;19927;-82
2023/05/28 02:14:18;;;;;;;;;;;;;;;25.42;24.27;98617.97;5088688;28;19978;-83
2023/05/28 02:16:52;;;;;;;;;;;;;;;25.03;24.52;98610.25;5068486;28;19963;-83
2023/05/28 02:19:18;;;;;;;;;;;;;;;25.18;24.24;98608.75;5069385;28;19928;-82
2023/05/28 02:21:44;;;;;;;;;;;;;;;25.26;24.40;98601.00;5059844;28;19921;-83
2023/05/28 02:24:10;;;;;;;;;;;;;;;25.31;24.38;98598.50;5067022;28;19920;-83
2023/05/28 02:26:36;;;;;;;;;;;;;;;25.38;24.05;98606.81;5072516;28;19920;-83
2023/05/28 02:29:03;;;;;;;;;;;;;;;25.52;23.62;98596.53;5069405;28;19920;-83
2023/05/28 02:31:29;;;;;;;;;;;;;;;25.59;23.71;98600.00;5071427;28;20375;-83
2023/05/28 02:33:55;;;;;;;;;;;;;;;25.52;24.06;98593.72;5067387;28;20399;-82
2023/05/28 02:36:21;;;;;;;;;;;;;;;25.50;23.40;98598.97;5073199;28;19924;-83
2023/05/28 02:38:47;;;;;;;;;;;;;;;25.48;23.56;98593.00;5072875;28;19920;-83
2023/05/28 02:41:13;;;;;;;;;;;;;;;25.50;23.84;98594.16;5068387;28;19927;-83
2023/05/28 02:43:39;;;;;;;;;;;;;;;25.50;24.02;98601.78;5071101;28;20402;-83
2023/05/28 02:46:05;;;;;;;;;;;;;;;25.52;23.51;98608.56;5068792;28;19920;-82
2023/05/28 02:48:31;;;;;;;;;;;;;;;25.64;23.06;98599.50;5073244;28;19922;-82
2023/05/28 02:50:57;;;;;;;;;;;;;;;25.54;23.19;98596.88;5066819;28;20272;-83
2023/05/28 02:53:23;;;;;;;;;;;;;;;25.48;23.48;98590.19;5058864;28;19974;-82
2023/05/28 02:55:50;;;;;;;;;;;;;;;25.44;23.78;98593.03;5072076;28;19916;-82
2023/05/28 02:58:16;;;;;;;;;;;;;;;25.41;23.45;98600.28;5072939;28;19967;-82
2023/05/28 03:00:42;;;;;;;;;;;;;;;25.55;23.08;98601.28;5071549;28;19916;-83
2023/05/28 03:03:08;;;;;;;;;;;;;;;25.41;23.84;98600.28;5063793;28;19924;-83
2023/05/28 03:05:34;;;;;;;;;;;;;;;25.15;24.22;98604.03;5073241;28;19925;-83
2023/05/28 03:08:01;;;;;;;;;;;;;;;25.34;23.85;98605.28;5067022;28;19995;-83
2023/05/28 03:10:27;;;;;;;;;;;;;;;25.52;23.73;98600.13;5062502;28;20295;-82
2023/05/28 03:12:53;;;;;;;;;;;;;;;25.53;23.39;98595.31;5063247;28;19924;-83
2023/05/28 03:15:19;;;;;;;;;;;;;;;25.55;23.78;98593.66;5071114;28;20007;-83
2023/05/28 03:17:45;;;;;;;;;;;;;;;25.52;23.49;98597.31;5072339;28;19943;-82
2023/05/28 03:20:11;;;;;;;;;;;;;;;25.52;24.15;98590.91;5062248;28;20003;-83
2023/05/28 03:22:37;;;;;;;;;;;;;;;25.49;24.13;98588.94;5069034;28;19928;-82
2023/05/28 03:25:04;;;;;;;;;;;;;;;25.71;24.42;98592.94;5057960;28;19925;-82
2023/05/28 03:27:31;;;;;;;;;;;;;;;26.00;24.11;98591.09;5065778;28;19928;-82
2023/05/28 03:29:57;;;;;;;;;;;;;;;26.25;23.71;98590.59;5068861;28;19982;-82
2023/05/28 03:32:23;;;;;;;;;;;;;;;26.52;23.66;98583.50;5057811;28;19931;-83
2023/05/28 03:34:49;;;;;;;;;;;;;;;26.89;23.54;98585.03;5069839;28;19928;-83
2023/05/28 03:37:15;;;;;;;;;;;;;;;27.26;23.27;98580.84;5071912;28;19924;-83
2023/05/28 03:39:41;;;;;;;;;;;;;;;27.53;23.19;98581.34;5069425;28;20396;-83
2023/05/28 03:42:07;;;;;;;;;;;;;;;27.66;22.74;98578.53;5065566;28;19925;-83
2023/05/28 03:44:34;;;;;;;;;;;;;;;27.25;22.97;98585.69;5062361;28;19979;-83
2023/05/28 03:47:00;;;;;;;;;;;;;;;27.18;23.72;98588.72;5070709;28;19927;-83
2023/05/28 03:49:26;;;;;;;;;;;;;;;27.16;23.74;98594.00;5059872;28;19966;-83
2023/05/28 03:51:52;;;;;;;;;;;;;;;27.07;24.19;98591.00;5063157;28;20328;-83
2023/05/28 03:54:18;;;;;;;;;;;;;;;27.15;24.45;98586.78;5061965;28;19920;-83
2023/05/28 03:56:44;;;;;;;;;;;;;;;27.06;25.12;98586.59;5068682;28;19927;-83
2023/05/28 03:59:10;;;;;;;;;;;;;;;27.14;24.93;98587.22;5069957;28;19921;-82
2023/05/28 04:01:37;;;;;;;;;;;;;;;27.38;24.40;98589.41;5068713;28;19928;-83
2023/05/28 04:04:03;;;;;;;;;;;;;;;27.74;24.17;98592.03;5069536;28;20049;-83
2023/05/28 04:06:31;;;;;;;;;;;;;;;28.08;24.50;98585.78;5071793;28;19981;-84
2023/05/28 04:08:57;;;;;;;;;;;;;;;28.23;24.06;98583.34;5073607;28;19912;-83
2023/05/28 04:11:24;;;;;;;;;;;;;;;28.33;24.38;98587.88;5073088;28;19917;-83
2023/05/28 04:13:51;;;;;;;;;;;;;;;28.55;23.80;98591.59;5071780;28;19917;-84
2023/05/28 04:16:19;;;;;;;;;;;;;;;28.50;23.94;98592.16;5063478;28;19962;-84
2023/05/28 04:18:45;;;;;;;;;;;;;;;28.48;24.47;98597.47;5072273;28;19927;-83
2023/05/28 04:21:12;;;;;;;;;;;;;;;28.68;24.16;98592.41;5071420;28;19920;-84
2023/05/28 04:23:38;;;;;;;;;;;;;;;28.71;24.70;98592.28;5071986;28;19947;-83
2023/05/28 04:26:07;;;;;;;;;;;;;;;28.92;24.37;98587.16;5074544;28;19938;-84
2023/05/28 04:28:33;;;;;;;;;;;;;;;28.98;24.34;98580.50;5060498;28;19925;-84
2023/05/28 04:31:02;;;;;;;;;;;;;;;28.96;24.59;98585.81;5065060;28;19942;-84
2023/05/28 04:33:28;;;;;;;;;;;;;;;29.12;24.08;98585.69;5065682;28;19925;-84
2023/05/28 04:35:55;;;;;;;;;;;;;;;29.07;24.62;98596.75;5059955;28;19927;-84
2023/05/28 04:38:21;;;;;;;;;;;;;;;29.36;24.15;98584.03;5056294;28;19948;-84
2023/05/28 04:40:49;;;;;;;;;;;;;;;29.35;24.30;98576.81;5052623;28;19940;-84
2023/05/28 04:43:15;;;;;;;;;;;;;;;29.35;24.40;98587.31;5059496;28;19920;-84
2023/05/28 04:45:43;;;;;;;;;;;;;;;29.43;24.47;98592.25;5070011;28;19920;-84
2023/05/28 04:48:09;;;;;;;;;;;;;;;29.41;23.73;98582.66;5060644;28;19920;-84
2023/05/28 04:50:35;;;;;;;;;;;;;;;29.58;25.20;98586.88;5067610;28;20280;-84
2023/05/28 04:53:01;;;;;;;;;;;;;;;30.16;24.52;98586.34;5059947;28;19975;-84
2023/05/28 04:55:27;;;;;;;;;;;;;;;30.36;23.33;98587.63;5071247;28;19917;-84
2023/05/28 04:57:53;;;;;;;;;;;;;;;30.18;23.18;98584.63;5074932;28;19928;-84
2023/05/28 05:00:20;;;;;;;;;;;;;;;30.25;23.56;98581.53;5073232;28;19950;-84
2023/05/28 05:02:46;;;;;;;;;;;;;;;30.23;23.44;98586.88;5075262;28;20386;-84
2023/05/28 05:05:12;;;;;;;;;;;;;;;30.39;23.75;98589.50;5068730;28;20003;-84
2023/05/28 05:07:38;;;;;;;;;;;;;;;30.45;24.17;98587.66;5069803;28;19931;-84
2023/05/28 05:10:10;;;;;;;;;;;;;;;30.49;23.01;98596.00;5066563;28;20004;-84
2023/05/28 05:12:36;;;;;;;;;;;;;;;30.47;23.67;98587.97;5065366;28;19924;-84
2023/05/28 05:15:04;;;;;;;;;;;;;;;30.41;23.71;98586.22;5065839;28;19927;-83
2023/05/28 05:17:30;;;;;;;;;;;;;;;30.40;22.99;98578.97;5076410;28;19924;-83
2023/05/28 05:19:56;;;;;;;;;;;;;;;30.31;24.10;98584.56;5072067;28;19929;-83
2023/05/28 05:22:22;;;;;;;;;;;;;;;30.54;23.67;98582.03;5067868;28;19927;-83
2023/05/28 05:24:48;;;;;;;;;;;;;;;31.02;23.24;98583.28;5072367;28;19967;-83
2023/05/28 05:27:15;;;;;;;;;;;;;;;30.98;23.89;98581.84;5074229;28;19917;-83
2023/05/28 05:29:41;;;;;;;;;;;;;;;31.07;23.23;98581.88;5067648;28;20284;-83
2023/05/28 05:32:08;;;;;;;;;;;;;;;30.92;24.46;98576.03;5068061;28;20341;-83
2023/05/28 05:34:34;;;;;;;;;;;;;;;31.35;23.32;98578.59;5072061;28;20425;-83
2023/05/28 05:37:00;;;;;;;;;;;;;;;31.77;22.68;98573.09;5061405;28;19960;-83
2023/05/28 05:39:27;;;;;;;;;;;;;;;31.89;21.45;98579.88;5070291;28;19940;-83
2023/05/28 05:41:53;;;;;;;;;;;;;;;31.19;24.34;98580.94;5064421;28;19920;-83
2023/05/28 05:44:19;;;;;;;;;;;;;;;31.29;22.70;98583.34;5067098;28;19921;-90
2023/05/28 05:46:45;;;;;;;;;;;;;;;31.21;23.71;98579.22;5067708;28;20287;-84
2023/05/28 05:49:11;;;;;;;;;;;;;;;31.21;22.29;98578.44;5064509;28;21854;-85
2023/05/28 05:51:37;;;;;;;;;;;;;;;31.29;21.59;98574.03;5071617;28;19927;-84
2023/05/28 05:54:03;;;;;;;;;;;;;;;31.06;24.06;98574.63;5066857;28;19920;-84
2023/05/28 05:56:29;;;;;;;;;;;;;;;30.89;21.80;98570.50;5066942;28;19997;-85
2023/05/28 05:58:57;;;;;;;;;;;;;;;30.94;22.85;98567.84;5069851;28;19960;-85
2023/05/28 06:01:23;;;;;;;;;;;;;;;30.80;23.64;98573.28;5069958;28;19974;-84
2023/05/28 06:03:49;;;;;;;;;;;;;;;31.07;23.56;98574.16;5072520;28;19933;-85
2023/05/28 06:06:15;;;;;;;;;;;;;;;31.66;20.28;98572.81;5071568;28;19928;-85
2023/05/28 06:08:41;;;;;;;;;;;;;;;31.46;21.68;98571.72;5070324;28;20371;-84
2023/05/28 06:11:07;;;;;;;;;;;;;;;31.80;20.89;98566.47;5072882;28;19963;-84
2023/05/28 06:13:35;;;;;;;;;;;;;;;31.86;19.48;98577.97;5065522;28;19956;-85
2023/05/28 06:16:02;;;;;;;;;;;;;;;31.77;20.92;98575.16;5057171;28;19926;-85
2023/05/28 06:18:35;;;;;;;;;;;;;;;32.29;20.36;98577.59;5070589;28;19924;-85
2023/05/28 06:21:01;;;;;;;;;;;;;;;32.16;19.36;98571.31;5071431;28;20366;-85
2023/05/28 06:23:27;;;;;;;;;;;;;;;32.23;21.03;98573.81;5100494;28;20382;-85
2023/05/28 06:25:53;;;;;;;;;;;;;;;32.09;21.30;98571.66;5070782;28;20435;-84
2023/05/28 06:28:19;;;;;;;;;;;;;;;31.81;20.53;98570.13;5070389;28;20276;-85
2023/05/28 06:30:45;;;;;;;;;;;;;;;30.73;20.46;98577.22;5071886;28;20367;-85
2023/05/28 06:33:11;;;;;;;;;;;;;;;30.77;20.95;98575.00;5069032;28;20384;-85
2023/05/28 06:35:37;;;;;;;;;;;;;;;31.14;20.38;98567.38;5069371;28;20372;-85
2023/05/28 06:38:03;;;;;;;;;;;;;;;31.42;21.88;98566.16;5069605;28;19947;-85
2023/05/28 06:40:30;;;;;;;;;;;;;;;31.06;21.93;98563.28;5068335;28;19924;-85
2023/05/28 06:42:56;;;;;;;;;;;;;;;31.62;21.71;98566.50;5072311;28;20367;-85
2023/05/28 06:45:22;;;;;;;;;;;;;;;31.85;19.97;98559.38;5068569;28;19921;-84
2023/05/28 06:47:48;;;;;;;;;;;;;;;31.36;21.37;98562.38;5068179;28;19920;-85
2023/05/28 06:50:14;;;;;;;;;;;;;;;31.64;20.69;98558.31;5066536;28;19924;-85
2023/05/28 06:52:40;;;;;;;;;;;;;;;32.28;20.28;98558.19;5070866;28;19921;-85
2023/05/28 06:55:06;;;;;;;;;;;;;;;31.58;21.70;98551.66;5069347;28;19924;-86
2023/05/28 06:57:32;;;;;;;;;;;;;;;31.37;21.30;98559.06;5064907;28;20010;-85
2023/05/28 06:59:58;;;;;;;;;;;;;;;31.93;20.31;98563.44;5071832;28;19924;-84
2023/05/28 07:02:25;;;;;;;;;;;;;;;32.24;20.37;98549.81;5070284;28;20385;-85
2023/05/28 07:04:51;;;;;;;;;;;;;;;32.64;18.71;98553.16;5068492;28;19972;-85
2023/05/28 07:07:17;;;;;;;;;;;;;;;32.29;20.81;98560.53;5068024;28;19963;-85
2023/05/28 07:09:44;;;;;;;;;;;;;;;31.36;21.02;98557.50;5083811;28;20130;-85
2023/05/28 07:12:10;;;;;;;;;;;;;;;30.78;20.89;98566.03;5065941;28;19921;-85
2023/05/28 07:14:36;;;;;;;;;;;;;;;29.70;21.24;98548.44;5071336;28;19943;-85
2023/05/28 07:17:02;;;;;;;;;;;;;;;28.45;24.12;98553.97;5059703;28;20288;-85
2023/05/28 07:19:28;;;;;;;;;;;;;;;28.67;23.87;98552.06;5071066;28;19920;-86
2023/05/28 07:21:54;;;;;;;;;;;;;;;29.98;20.31;98544.56;5069484;28;20007;-86
2023/05/28 07:24:20;;;;;;;;;;;;;;;29.53;21.78;98539.38;5053537;28;20011;-86
2023/05/28 07:26:46;;;;;;;;;;;;;;;29.78;20.45;98541.31;5069176;28;19974;-85
2023/05/28 07:29:18;;;;;;;;;;;;;;;30.75;20.67;98546.34;5064114;28;19932;-88
2023/05/28 07:31:44;;;;;;;;;;;;;;;31.26;18.89;98541.72;5058719;28;19925;-87
2023/05/28 07:34:10;;;;;;;;;;;;;;;30.01;21.29;98529.50;5064118;28;20003;-88
2023/05/28 07:36:39;;;;;;;;;;;;;;;29.04;24.17;98541.91;5067184;28;19920;-86
2023/05/28 07:39:05;;;;;;;;;;;;;;;28.56;23.68;98545.16;5066038;28;19920;-87
2023/05/28 07:41:31;;;;;;;;;;;;;;;30.09;22.21;98548.56;5077019;28;19928;-87
2023/05/28 07:43:57;;;;;;;;;;;;;;;31.20;20.20;98539.97;5066565;28;19927;-86
2023/05/28 07:46:23;;;;;;;;;;;;;;;30.07;19.96;98548.25;5065705;28;19944;-88
2023/05/28 07:48:50;;;;;;;;;;;;;;;28.42;21.60;98542.78;5067194;28;19920;-86
2023/05/28 07:51:17;;;;;;;;;;;;;;;28.08;23.83;98537.03;5067128;28;19920;-87
2023/05/28 07:53:43;;;;;;;;;;;;;;;28.17;21.98;98540.72;5062869;28;19920;-85
2023/05/28 07:56:09;;;;;;;;;;;;;;;27.57;24.02;98533.28;5064001;28;19921;-87
2023/05/28 07:58:35;;;;;;;;;;;;;;;29.28;21.36;98531.78;5065771;28;19920;-86
2023/05/28 08:01:01;;;;;;;;;;;;;;;30.48;21.02;98532.84;5069622;28;19927;-87
2023/05/28 08:03:27;;;;;;;;;;;;;;;30.38;18.74;98530.47;5062388;28;20011;-87
2023/05/28 08:05:54;;;;;;;;;;;;;;;30.86;20.66;98515.47;5067239;28;20317;-88
2023/05/28 08:08:20;;;;;;;;;;;;;;;31.16;19.20;98522.31;5062641;28;19921;-86
2023/05/28 08:10:46;;;;;;;;;;;;;;;31.43;20.82;98516.69;5066113;28;19921;-88
2023/05/28 08:13:12;;;;;;;;;;;;;;;31.79;18.53;98513.78;5066298;28;19920;-89
2023/05/28 08:15:38;;;;;;;;;;;;;;;31.86;19.02;98521.97;5058516;28;20014;-93
2023/05/28 08:18:04;;;;;;;;;;;;;;;30.55;19.48;98521.22;5065741;28;20398;-92
2023/05/28 08:20:30;;;;;;;;;;;;;;;30.52;19.37;98524.22;5067426;28;22068;-90
2023/05/28 08:22:56;;;;;;;;;;;;;;;31.28;19.67;98515.69;5064412;28;19928;-92
2023/05/28 08:25:22;;;;;;;;;;;;;;;30.28;20.20;98521.13;5068030;28;19924;-89
2023/05/28 08:27:48;;;;;;;;;;;;;;;30.94;21.27;98518.84;5072083;28;19981;-89
2023/05/28 08:30:14;;;;;;;;;;;;;;;31.60;21.12;98517.13;5067593;28;20281;-89
2023/05/28 08:32:40;;;;;;;;;;;;;;;29.55;22.21;98527.56;5072601;28;20315;-88
2023/05/28 08:35:06;;;;;;;;;;;;;;;30.91;19.95;98514.88;5066670;28;20426;-88
2023/05/28 08:37:32;;;;;;;;;;;;;;;30.99;19.58;98516.16;5067588;28;19925;-90
2023/05/28 08:39:59;;;;;;;;;;;;;;;29.72;20.13;98517.63;5076457;28;20015;-90
2023/05/28 08:42:27;;;;;;;;;;;;;;;29.18;20.00;98518.03;5067849;28;19917;-91
2023/05/28 08:44:54;;;;;;;;;;;;;;;27.49;24.23;98521.41;5072518;28;20299;-88
2023/05/28 08:47:21;;;;;;;;;;;;;;;28.31;21.71;98514.09;5072329;28;20015;-88
2023/05/28 08:49:55;;;;;;;;;;;;;;;28.51;22.00;98512.59;5066683;28;20387;-88
2023/05/28 08:52:22;;;;;;;;;;;;;;;29.52;21.15;98505.88;5060901;28;19921;-89
2023/05/28 08:54:48;;;;;;;;;;;;;;;28.79;21.08;98515.75;5072929;28;19924;-89
2023/05/28 08:57:15;;;;;;;;;;;;;;;29.13;19.43;98507.25;5069795;28;19943;-90
2023/05/28 08:59:42;;;;;;;;;;;;;;;28.61;20.85;98505.81;5070394;28;20358;-88
2023/05/28 09:02:08;;;;;;;;;;;;;;;28.26;20.16;98500.53;5071879;28;19928;-89
2023/05/28 09:04:34;;;;;;;;;;;;;;;29.67;21.64;98498.41;5074980;28;19924;-88
2023/05/28 09:07:00;;;;;;;;;;;;;;;28.59;21.48;98501.91;5072347;28;19976;-88
2023/05/28 09:09:27;;;;;;;;;;;;;;;28.90;22.04;98493.53;5068765;28;19928;-88
2023/05/28 09:11:57;;;;;;;;;;;;;;;29.47;19.90;98492.31;5068237;28;19928;-88
2023/05/28 09:14:23;;;;;;;;;;;;;;;30.80;19.72;98482.56;5073168;28;19966;-89
2023/05/28 09:16:49;;;;;;;;;;;;;;;30.83;18.61;98485.22;5070209;28;19928;-85
2023/05/28 09:19:15;;;;;;;;;;;;;;;30.80;19.81;98486.19;5068345;28;20295;-84
2023/05/28 09:21:56;;;;;;;;;;;;;;;30.94;19.19;98485.59;5069664;28;20322;-87
2023/05/28 09:24:22;;;;;;;;;;;;;;;31.58;19.91;98472.16;5071066;28;19927;-87
2023/05/28 09:26:50;;;;;;;;;;;;;;;31.98;18.75;98481.25;5070091;28;20023;-87
2023/05/28 09:29:16;;;;;;;;;;;;;;;31.11;19.89;98483.25;5075525;28;19916;-87
2023/05/28 09:31:42;;;;;;;;;;;;;;;31.96;20.01;98478.09;5068129;28;19921;-87
2023/05/28 09:34:09;;;;;;;;;;;;;;;32.32;18.20;98471.50;5062157;28;19943;-94
2023/05/28 09:36:38;;;;;;;;;;;;;;;30.44;21.55;98475.53;5065655;28;20007;-89
2023/05/28 09:39:08;;;;;;;;;;;;;;;31.10;19.91;98482.44;5065052;28;20436;-89
2023/05/28 09:41:36;;;;;;;;;;;;;;;30.76;20.78;98479.84;5068643;28;20027;-88
2023/05/28 09:44:04;;;;;;;;;;;;;;;30.68;20.87;98476.56;5070761;28;19921;-89
2023/05/28 09:46:31;;;;;;;;;;;;;;;31.53;20.18;98467.13;5063146;28;19940;-89
2023/05/28 09:48:58;;;;;;;;;;;;;;;30.89;22.20;98465.56;5065424;28;20379;-90
2023/05/28 09:51:25;;;;;;;;;;;;;;;30.05;20.81;98468.63;5064316;28;19920;-87
2023/05/28 09:53:53;;;;;;;;;;;;;;;30.44;20.75;98469.88;5074411;28;19930;-91
2023/05/28 09:56:20;;;;;;;;;;;;;;;31.27;19.46;98460.97;5072837;28;19944;-88
2023/05/28 09:58:49;;;;;;;;;;;;;;;30.86;21.91;98466.47;5063913;28;19968;-90
2023/05/28 10:01:15;;;;;;;;;;;;;;;29.68;21.50;98472.50;5060610;28;19951;-89
2023/05/28 10:03:43;;;;;;;;;;;;;;;30.70;20.25;98461.91;5065540;28;20393;-90
2023/05/28 10:06:21;;;;;;;;;;;;;;;31.89;20.73;98463.41;5063111;28;19970;-89
2023/05/28 10:08:51;;;;;;;;;;;;;;;30.37;22.15;98470.16;5059126;28;19924;-86
2023/05/28 10:11:21;;;;;;;;;;;;;;;30.05;21.17;98454.47;5066905;28;19924;-84
2023/05/28 10:13:48;;;;;;;;;;;;;;;30.42;23.00;98458.22;5062868;28;20368;-85
2023/05/28 10:16:14;;;;;;;;;;;;;;;31.31;21.04;98458.78;5066441;28;20107;-86
2023/05/28 10:18:44;;;;;;;;;;;;;;;32.44;19.68;98456.22;5068169;28;20388;-85
2023/05/28 10:21:11;;;;;;;;;;;;;;;32.41;18.75;98453.59;5062185;28;19974;-85
2023/05/28 10:23:37;;;;;;;;;;;;;;;31.30;20.83;98454.38;5065445;28;19920;-86
2023/05/28 10:26:04;;;;;;;;;;;;;;;31.16;19.38;98446.50;5097858;28;19962;-85
2023/05/28 10:28:30;;;;;;;;;;;;;;;31.08;20.57;98444.47;5064711;28;19924;-86
2023/05/28 10:31:02;;;;;;;;;;;;;;;31.84;19.85;98447.81;5062848;28;20009;-86
2023/05/28 10:33:28;;;;;;;;;;;;;;;31.84;20.63;98444.97;5067424;28;19974;-83
2023/05/28 10:35:56;;;;;;;;;;;;;;;31.53;21.83;98438.75;5063768;28;19924;-86
2023/05/28 10:38:22;;;;;;;;;;;;;;;30.57;21.20;98450.69;5064160;28;20275;-85
2023/05/28 10:40:51;;;;;;;;;;;;;;;30.39;21.15;98449.84;5062387;28;20007;-86
2023/05/28 10:43:36;;;;;;;;;;;;;;;31.35;21.92;98445.22;5064257;28;19921;-86
2023/05/28 10:46:02;;;;;;;;;;;;;;;29.84;24.04;98449.66;5063656;28;20380;-86
2023/05/28 10:48:31;;;;;;;;;;;;;;;29.27;23.00;98447.38;5065549;28;20348;-87
2023/05/28 10:51:01;;;;;;;;;;;;;;;29.35;23.94;98443.03;5062773;28;19930;-90
2023/05/28 10:53:27;;;;;;;;;;;;;;;29.53;23.54;98445.97;5064652;28;19929;-89
2023/05/28 10:55:54;;;;;;;;;;;;;;;29.56;22.28;98447.09;5064049;28;19920;-90
2023/05/28 10:58:27;;;;;;;;;;;;;;;29.56;22.38;98445.06;5064186;28;20263;-92
2023/05/28 11:01:01;;;;;;;;;;;;;;;28.79;23.98;98448.72;5067544;28;20388;-91
2023/05/28 11:03:53;;;;;;;;;;;;;;;29.83;21.99;98441.59;5067385;28;19939;-87
2023/05/28 11:06:19;;;;;;;;;;;;;;;31.34;20.27;98437.19;5063499;28;20443;-90
2023/05/28 11:08:49;;;;;;;;;;;;;;;32.09;19.40;98440.97;5062763;28;19928;-90
2023/05/28 11:11:16;;;;;;;;;;;;;;;29.77;21.63;98423.66;5062853;28;19920;-88
2023/05/28 11:13:43;;;;;;;;;;;;;;;30.60;20.64;98432.75;5065131;28;20309;-90
2023/05/28 11:16:10;;;;;;;;;;;;;;;31.12;20.62;98428.06;5064889;28;19920;-88
2023/05/28 11:18:36;;;;;;;;;;;;;;;31.19;19.26;98416.41;5063354;28;19921;-86
2023/05/28 11:21:03;;;;;;;;;;;;;;;30.58;23.50;98425.97;5064415;28;21204;-91
2023/05/28 11:23:30;;;;;;;;;;;;;;;31.03;21.73;98423.19;5062585;28;19931;-88
2023/05/28 11:25:56;;;;;;;;;;;;;;;31.28;20.99;98425.69;5063530;28;19979;-87
2023/05/28 11:28:22;;;;;;;;;;;;;;;30.59;21.52;98421.88;5062811;28;19912;-86
2023/05/28 11:30:50;;;;;;;;;;;;;;;31.42;22.31;98418.56;5064810;28;19946;-88
2023/05/28 11:33:16;;;;;;;;;;;;;;;29.79;22.28;98421.94;5063549;28;19920;-86
2023/05/28 11:35:42;;;;;;;;;;;;;;;29.32;22.97;98433.44;5063377;28;20031;-86
2023/05/28 11:38:08;;;;;;;;;;;;;;;30.06;21.06;98426.91;5067509;28;19946;-88
2023/05/28 11:40:34;;;;;;;;;;;;;;;30.33;19.93;98417.75;5062125;28;19954;-87
2023/05/28 11:43:01;;;;;;;;;;;;;;;30.42;22.39;98412.88;5066798;28;19964;-90
2023/05/28 11:45:27;;;;;;;;;;;;;;;29.41;23.76;98416.53;5062026;28;20340;-91
2023/05/28 11:47:54;;;;;;;;;;;;;;;30.20;22.82;98414.22;5067149;28;19967;-86
2023/05/28 11:50:22;;;;;;;;;;;;;;;29.61;21.34;98406.88;5066151;28;19928;-84
2023/05/28 11:52:49;;;;;;;;;;;;;;;29.91;21.57;98409.72;5060060;28;19921;-85
2023/05/28 11:55:15;;;;;;;;;;;;;;;29.31;23.04;98406.41;5062901;28;19931;-86
2023/05/28 11:58:11;;;;;;;;;;;;;;;29.32;21.76;98415.69;5069376;28;19920;-84
2023/05/28 12:00:37;;;;;;;;;;;;;;;30.46;21.59;98404.22;5059383;28;20352;-87
2023/05/28 12:03:04;;;;;;;;;;;;;;;30.52;21.41;98408.81;5067903;28;19932;-87
2023/05/28 12:05:36;;;;;;;;;;;;;;;32.60;20.54;98401.06;5067738;28;20360;-83
2023/05/28 12:08:02;;;;;;;;;;;;;;;32.20;21.49;98404.28;5063677;28;19916;-84
2023/05/28 12:10:29;;;;;;;;;;;;;;;30.97;21.46;98405.22;5067967;28;19920;-88
2023/05/28 12:12:56;;;;;;;;;;;;;;;31.38;20.43;98403.75;5067598;28;20296;-84
2023/05/28 12:15:28;;;;;;;;;;;;;;;32.66;20.03;98404.78;5068923;28;20406;-85
2023/05/28 12:17:56;;;;;;;;;;;;;;;32.12;20.06;98400.22;5069812;28;20307;-87
2023/05/28 12:20:22;;;;;;;;;;;;;;;30.93;21.46;98403.81;5069776;28;19923;-86
2023/05/28 12:23:04;;;;;;;;;;;;;;;30.92;20.92;98402.25;5071739;28;19924;-86
2023/05/28 12:25:42;;;;;;;;;;;;;;;31.36;21.57;98409.13;5065396;28;19927;-85
2023/05/28 12:28:12;;;;;;;;;;;;;;;32.82;19.82;98400.72;5069954;28;19920;-84
2023/05/28 12:30:38;;;;;;;;;;;;;;;33.78;17.02;98400.75;5063985;28;20359;-84
2023/05/28 12:33:04;;;;;;;;;;;;;;;33.21;18.93;98396.63;5072265;28;20418;-86
2023/05/28 12:35:30;;;;;;;;;;;;;;;34.01;17.95;98394.13;5100827;28;20295;-84
2023/05/28 12:37:56;;;;;;;;;;;;;;;34.26;18.92;98397.63;5068928;28;19968;-85
2023/05/28 12:40:22;;;;;;;;;;;;;;;33.28;18.50;98397.00;5070384;28;19924;-85
2023/05/28 12:42:48;;;;;;;;;;;;;;;31.98;21.41;98398.06;5066024;28;19920;-84
2023/05/28 12:45:14;;;;;;;;;;;;;;;31.56;21.29;98389.53;5067033;28;20300;-84
2023/05/28 12:47:40;;;;;;;;;;;;;;;31.73;19.26;98393.59;5075071;28;19916;-84